Terminal Aerodrome Forecast
Issued by NWS

Home | Current Version | Previous Version | Text Only | Print | Product List | Glossary On
Versions: 1 2 3 4 5 6 7 8 9 10 11 12 13 14 15 16 17 18 19 20 21 22 23 24 25 26 27 28 29 30 31 32 33 34 35
961
FTUS41 KBOX 110539
TAFHYA
TAF
KHYA 110539Z 1106/1206 29008KT P6SM SCT050
     FM110700 29009KT P6SM BKN050
     FM111200 29007KT P6SM VCSH BKN050
     FM111500 28011G18KT P6SM VCSH BKN070
     FM111800 27015G24KT P6SM VCSH BKN030
     FM112100 29018G30KT P6SM BKN035
     FM112200 29017G30KT P6SM VCSH BKN045
     FM120100 29016G31KT P6SM SCT070=

USA.gov is the U.S. government's official web portal to all federal, state and local government web resources and services.